sensor_id;sensor_type;location;lat;lon;timestamp;P1;durP1;ratioP1;P2;durP2;ratioP2
16967;SDS011;64862;54.398;10.126;2024-03-02T00:05:06;56.38;;;28.30;;
16967;SDS011;64862;54.398;10.126;2024-03-02T00:15:18;56.90;;;27.85;;
16967;SDS011;64862;54.398;10.126;2024-03-02T00:25:39;55.72;;;27.90;;
16967;SDS011;64862;54.398;10.126;2024-03-02T00:35:45;53.58;;;27.58;;
16967;SDS011;64862;54.398;10.126;2024-03-02T00:45:47;53.53;;;26.67;;
16967;SDS011;64862;54.398;10.126;2024-03-02T00:55:51;55.10;;;27.55;;
16967;SDS011;64862;54.398;10.126;2024-03-02T01:05:53;55.28;;;27.17;;
16967;SDS011;64862;54.398;10.126;2024-03-02T01:15:57;51.58;;;27.20;;
16967;SDS011;64862;54.398;10.126;2024-03-02T01:25:59;54.13;;;28.48;;
16967;SDS011;64862;54.398;10.126;2024-03-02T01:36:03;53.15;;;28.33;;
16967;SDS011;64862;54.398;10.126;2024-03-02T01:46:06;51.85;;;28.40;;
16967;SDS011;64862;54.398;10.126;2024-03-02T01:56:09;61.60;;;31.23;;
16967;SDS011;64862;54.398;10.126;2024-03-02T02:06:11;57.20;;;29.27;;
16967;SDS011;64862;54.398;10.126;2024-03-02T02:16:15;59.00;;;30.40;;
16967;SDS011;64862;54.398;10.126;2024-03-02T02:26:18;55.53;;;29.48;;
16967;SDS011;64862;54.398;10.126;2024-03-02T02:36:20;60.53;;;31.83;;
16967;SDS011;64862;54.398;10.126;2024-03-02T02:46:24;55.45;;;30.05;;
16967;SDS011;64862;54.398;10.126;2024-03-02T02:56:26;58.42;;;28.90;;
16967;SDS011;64862;54.398;10.126;2024-03-02T03:06:29;55.45;;;29.20;;
16967;SDS011;64862;54.398;10.126;2024-03-02T03:16:31;59.30;;;30.88;;
16967;SDS011;64862;54.398;10.126;2024-03-02T03:26:36;68.43;;;32.80;;
16967;SDS011;64862;54.398;10.126;2024-03-02T03:36:38;69.65;;;34.42;;
16967;SDS011;64862;54.398;10.126;2024-03-02T03:46:42;69.20;;;34.53;;
16967;SDS011;64862;54.398;10.126;2024-03-02T03:56:44;67.82;;;33.00;;
16967;SDS011;64862;54.398;10.126;2024-03-02T04:06:47;65.80;;;32.88;;
16967;SDS011;64862;54.398;10.126;2024-03-02T04:16:49;71.28;;;34.10;;
16967;SDS011;64862;54.398;10.126;2024-03-02T04:26:53;65.03;;;34.17;;
16967;SDS011;64862;54.398;10.126;2024-03-02T04:36:55;68.95;;;35.67;;
16967;SDS011;64862;54.398;10.126;2024-03-02T04:46:58;69.90;;;35.75;;
16967;SDS011;64862;54.398;10.126;2024-03-02T04:57:00;67.10;;;34.92;;
16967;SDS011;64862;54.398;10.126;2024-03-02T05:07:04;71.40;;;37.78;;
16967;SDS011;64862;54.398;10.126;2024-03-02T05:17:06;68.57;;;33.90;;
16967;SDS011;64862;54.398;10.126;2024-03-02T05:27:09;66.28;;;33.58;;
16967;SDS011;64862;54.398;10.126;2024-03-02T05:37:11;87.20;;;40.08;;
16967;SDS011;64862;54.398;10.126;2024-03-02T05:47:15;66.18;;;34.63;;
16967;SDS011;64862;54.398;10.126;2024-03-02T05:57:17;66.30;;;33.90;;
16967;SDS011;64862;54.398;10.126;2024-03-02T06:07:40;110.10;;;55.92;;
16967;SDS011;64862;54.398;10.126;2024-03-02T06:17:45;65.45;;;35.00;;
16967;SDS011;64862;54.398;10.126;2024-03-02T06:27:48;68.25;;;33.67;;
16967;SDS011;64862;54.398;10.126;2024-03-02T06:37:50;66.55;;;34.35;;
16967;SDS011;64862;54.398;10.126;2024-03-02T06:47:54;64.85;;;33.25;;
16967;SDS011;64862;54.398;10.126;2024-03-02T06:57:56;70.97;;;36.35;;
16967;SDS011;64862;54.398;10.126;2024-03-02T07:08:00;65.40;;;34.03;;
16967;SDS011;64862;54.398;10.126;2024-03-02T07:18:03;61.50;;;33.13;;
16967;SDS011;64862;54.398;10.126;2024-03-02T07:28:07;59.65;;;31.70;;
16967;SDS011;64862;54.398;10.126;2024-03-02T07:38:09;57.53;;;30.70;;
16967;SDS011;64862;54.398;10.126;2024-03-02T07:48:14;58.92;;;30.88;;
16967;SDS011;64862;54.398;10.126;2024-03-02T07:58:16;57.65;;;31.52;;
16967;SDS011;64862;54.398;10.126;2024-03-02T08:08:21;60.47;;;32.13;;
16967;SDS011;64862;54.398;10.126;2024-03-02T08:18:23;53.65;;;29.15;;
16967;SDS011;64862;54.398;10.126;2024-03-02T08:28:26;50.30;;;28.15;;
16967;SDS011;64862;54.398;10.126;2024-03-02T08:38:28;50.63;;;27.10;;
16967;SDS011;64862;54.398;10.126;2024-03-02T08:48:33;48.95;;;27.02;;
16967;SDS011;64862;54.398;10.126;2024-03-02T08:58:35;46.92;;;26.73;;
16967;SDS011;64862;54.398;10.126;2024-03-02T09:08:38;44.08;;;24.98;;
16967;SDS011;64862;54.398;10.126;2024-03-02T09:18:40;43.60;;;24.30;;
16967;SDS011;64862;54.398;10.126;2024-03-02T09:28:44;46.28;;;25.20;;
16967;SDS011;64862;54.398;10.126;2024-03-02T09:38:46;42.70;;;24.33;;
16967;SDS011;64862;54.398;10.126;2024-03-02T09:48:49;40.15;;;23.33;;
16967;SDS011;64862;54.398;10.126;2024-03-02T09:58:51;41.90;;;23.67;;
16967;SDS011;64862;54.398;10.126;2024-03-02T10:08:55;38.28;;;22.50;;
16967;SDS011;64862;54.398;10.126;2024-03-02T10:18:57;39.78;;;20.83;;
16967;SDS011;64862;54.398;10.126;2024-03-02T10:29:01;32.88;;;19.83;;
16967;SDS011;64862;54.398;10.126;2024-03-02T10:39:03;32.17;;;18.10;;
16967;SDS011;64862;54.398;10.126;2024-03-02T10:49:07;31.52;;;17.48;;
16967;SDS011;64862;54.398;10.126;2024-03-02T10:59:12;29.30;;;17.17;;
16967;SDS011;64862;54.398;10.126;2024-03-02T11:09:21;30.77;;;17.58;;
16967;SDS011;64862;54.398;10.126;2024-03-02T11:19:24;29.73;;;17.30;;
16967;SDS011;64862;54.398;10.126;2024-03-02T11:29:48;31.42;;;18.40;;
16967;SDS011;64862;54.398;10.126;2024-03-02T11:39:51;30.27;;;17.42;;
16967;SDS011;64862;54.398;10.126;2024-03-02T11:49:55;33.42;;;18.30;;
16967;SDS011;64862;54.398;10.126;2024-03-02T11:59:57;27.80;;;16.70;;
16967;SDS011;64862;54.398;10.126;2024-03-02T12:10:01;30.20;;;17.33;;
16967;SDS011;64862;54.398;10.126;2024-03-02T12:20:04;29.25;;;17.05;;
16967;SDS011;64862;54.398;10.126;2024-03-02T12:30:09;29.25;;;15.57;;
16967;SDS011;64862;54.398;10.126;2024-03-02T12:40:14;26.92;;;16.23;;
16967;SDS011;64862;54.398;10.126;2024-03-02T12:50:20;28.10;;;16.35;;
16967;SDS011;64862;54.398;10.126;2024-03-02T13:00:22;30.27;;;15.95;;
16967;SDS011;64862;54.398;10.126;2024-03-02T13:10:25;28.23;;;16.55;;
16967;SDS011;64862;54.398;10.126;2024-03-02T13:20:29;33.42;;;18.00;;
16967;SDS011;64862;54.398;10.126;2024-03-02T13:30:34;30.08;;;18.15;;
16967;SDS011;64862;54.398;10.126;2024-03-02T13:40:36;32.75;;;18.33;;
16967;SDS011;64862;54.398;10.126;2024-03-02T13:50:40;28.88;;;17.88;;
16967;SDS011;64862;54.398;10.126;2024-03-02T14:00:42;32.03;;;17.40;;
16967;SDS011;64862;54.398;10.126;2024-03-02T14:10:48;29.05;;;17.00;;
16967;SDS011;64862;54.398;10.126;2024-03-02T14:20:50;31.15;;;17.23;;
16967;SDS011;64862;54.398;10.126;2024-03-02T14:30:54;26.60;;;15.43;;
16967;SDS011;64862;54.398;10.126;2024-03-02T14:40:56;25.60;;;15.13;;
16967;SDS011;64862;54.398;10.126;2024-03-02T14:51:00;23.67;;;14.25;;
16967;SDS011;64862;54.398;10.126;2024-03-02T15:01:03;24.00;;;14.57;;
16967;SDS011;64862;54.398;10.126;2024-03-02T15:11:08;29.33;;;14.45;;
16967;SDS011;64862;54.398;10.126;2024-03-02T15:21:10;23.80;;;13.55;;
16967;SDS011;64862;54.398;10.126;2024-03-02T15:31:14;22.40;;;13.63;;
16967;SDS011;64862;54.398;10.126;2024-03-02T15:41:17;21.73;;;12.68;;
16967;SDS011;64862;54.398;10.126;2024-03-02T15:51:20;23.95;;;12.40;;
16967;SDS011;64862;54.398;10.126;2024-03-02T16:01:22;21.60;;;12.02;;
16967;SDS011;64862;54.398;10.126;2024-03-02T16:11:27;21.02;;;12.13;;
16967;SDS011;64862;54.398;10.126;2024-03-02T16:21:29;27.15;;;14.65;;
16967;SDS011;64862;54.398;10.126;2024-03-02T16:31:32;27.70;;;15.23;;
16967;SDS011;64862;54.398;10.126;2024-03-02T16:41:34;26.05;;;14.38;;
16967;SDS011;64862;54.398;10.126;2024-03-02T16:51:41;22.60;;;13.57;;
16967;SDS011;64862;54.398;10.126;2024-03-02T17:01:44;22.15;;;12.60;;
16967;SDS011;64862;54.398;10.126;2024-03-02T17:11:47;22.38;;;13.48;;
16967;SDS011;64862;54.398;10.126;2024-03-02T17:21:50;27.60;;;16.33;;
16967;SDS011;64862;54.398;10.126;2024-03-02T17:31:53;31.05;;;16.92;;
16967;SDS011;64862;54.398;10.126;2024-03-02T17:41:56;33.03;;;18.50;;
16967;SDS011;64862;54.398;10.126;2024-03-02T17:51:59;34.25;;;19.58;;
16967;SDS011;64862;54.398;10.126;2024-03-02T18:02:02;31.75;;;17.45;;
16967;SDS011;64862;54.398;10.126;2024-03-02T18:12:05;32.53;;;18.75;;
16967;SDS011;64862;54.398;10.126;2024-03-02T18:22:08;50.90;;;26.25;;
16967;SDS011;64862;54.398;10.126;2024-03-02T18:32:11;43.53;;;22.50;;
16967;SDS011;64862;54.398;10.126;2024-03-02T18:42:13;35.70;;;20.23;;
16967;SDS011;64862;54.398;10.126;2024-03-02T18:52:17;37.60;;;21.52;;
16967;SDS011;64862;54.398;10.126;2024-03-02T19:02:19;40.15;;;22.35;;
16967;SDS011;64862;54.398;10.126;2024-03-02T19:12:23;35.28;;;20.45;;
16967;SDS011;64862;54.398;10.126;2024-03-02T19:22:25;37.35;;;20.92;;
16967;SDS011;64862;54.398;10.126;2024-03-02T19:32:29;35.10;;;20.08;;
16967;SDS011;64862;54.398;10.126;2024-03-02T19:42:32;30.33;;;19.13;;
16967;SDS011;64862;54.398;10.126;2024-03-02T19:52:36;34.35;;;20.45;;
16967;SDS011;64862;54.398;10.126;2024-03-02T20:02:38;33.78;;;19.85;;
16967;SDS011;64862;54.398;10.126;2024-03-02T20:12:42;35.28;;;19.10;;
16967;SDS011;64862;54.398;10.126;2024-03-02T20:22:44;34.40;;;19.52;;
16967;SDS011;64862;54.398;10.126;2024-03-02T20:32:47;36.33;;;19.88;;
16967;SDS011;64862;54.398;10.126;2024-03-02T20:42:49;33.08;;;19.27;;
16967;SDS011;64862;54.398;10.126;2024-03-02T20:52:53;38.28;;;19.92;;
16967;SDS011;64862;54.398;10.126;2024-03-02T21:02:56;32.33;;;19.23;;
16967;SDS011;64862;54.398;10.126;2024-03-02T21:13:00;36.65;;;19.45;;
16967;SDS011;64862;54.398;10.126;2024-03-02T21:23:02;36.50;;;20.38;;
16967;SDS011;64862;54.398;10.126;2024-03-02T21:33:06;39.65;;;20.52;;
16967;SDS011;64862;54.398;10.126;2024-03-02T21:43:08;36.58;;;20.45;;
16967;SDS011;64862;54.398;10.126;2024-03-02T21:53:11;33.20;;;19.48;;
16967;SDS011;64862;54.398;10.126;2024-03-02T22:03:13;36.58;;;20.25;;
16967;SDS011;64862;54.398;10.126;2024-03-02T22:13:17;34.95;;;19.92;;
16967;SDS011;64862;54.398;10.126;2024-03-02T22:23:19;41.20;;;22.88;;
16967;SDS011;64862;54.398;10.126;2024-03-02T22:33:23;38.22;;;21.60;;
16967;SDS011;64862;54.398;10.126;2024-03-02T22:43:24;36.30;;;20.25;;
16967;SDS011;64862;54.398;10.126;2024-03-02T22:53:29;37.42;;;21.20;;
16967;SDS011;64862;54.398;10.126;2024-03-02T23:03:31;40.25;;;22.85;;
16967;SDS011;64862;54.398;10.126;2024-03-02T23:13:35;37.75;;;21.65;;
16967;SDS011;64862;54.398;10.126;2024-03-02T23:23:37;43.05;;;22.92;;
16967;SDS011;64862;54.398;10.126;2024-03-02T23:33:40;42.58;;;23.98;;
16967;SDS011;64862;54.398;10.126;2024-03-02T23:43:42;44.15;;;23.83;;
16967;SDS011;64862;54.398;10.126;2024-03-02T23:53:46;41.85;;;24.08;;
